Terminal Aerodrome Forecast
Issued by NWS

Home | Current Version | Previous Version | Text Only | Print | Product List | Glossary On
Versions: 1 2 3 4 5 6 7 8 9 10 11 12 13 14 15
000
FTUS45 KABQ 031129
TAFROW
TAF
KROW 031129Z 0312/0412 VRB05KT P6SM BKN200
     FM031900 12008KT P6SM SCT070
     FM032300 15010KT P6SM VCTS BKN080CB
     FM040200 15008KT P6SM VCSH BKN080
     FM040600 16007KT P6SM BKN200=

USA.gov is the U.S. government's official web portal to all federal, state and local government web resources and services.